GIA111 WIII-OEJN
Flight info
| Callsign | GIA111 |
|---|---|
| Flight time | N/A |
| Altitude | 32000 |
| Route | RIMTI M766 PAGAI/N0497F340 M766 ELGAS/N0490F360 M766 KAT P570 TVM UL425 ASPUX/N0486F380 L425 GOBRO DCT AMBIT L425 BOSUT |
| Aircraft | B744/H-SDE3FGHIM1M2RWXY/LB1 |
Departure
| Time | 2026-05-06 23:46 |
|---|---|
| Airport | Soekarno-Hatta International Airport (WIII) |
Arrival
| Time | N/A |
|---|---|
| Airport | King Abdulaziz International Airport (OEJN) |
| Time | Latitude | Longitude | Altitude | Speed | Heading |
|---|---|---|---|---|---|
| 2026-05-06 23:09 | -6.12451 | 106.64909 | 47 ft | 0 kts | 71° |
| 2026-05-06 23:31 | -6.12454 | 106.64900 | 47 ft | 2 kts | 71° |
| 2026-05-06 23:31 | -6.12460 | 106.64884 | 47 ft | 2 kts | 71° |
| 2026-05-06 23:32 | -6.12463 | 106.64869 | 47 ft | 2 kts | 93° |
| 2026-05-06 23:32 | -6.12459 | 106.64853 | 47 ft | 2 kts | 118° |
| 2026-05-06 23:32 | -6.12449 | 106.64841 | 47 ft | 2 kts | 143° |
| 2026-05-06 23:32 | -6.12444 | 106.64837 | 47 ft | 0 kts | 150° |
| 2026-05-06 23:35 | -6.12477 | 106.64857 | 47 ft | 13 kts | 150° |
| 2026-05-06 23:35 | -6.12574 | 106.64874 | 47 ft | 15 kts | 197° |
| 2026-05-06 23:35 | -6.12652 | 106.64777 | 47 ft | 12 kts | 250° |
| 2026-05-06 23:36 | -6.12678 | 106.64708 | 47 ft | 10 kts | 249° |
| 2026-05-06 23:36 | -6.12703 | 106.64644 | 47 ft | 10 kts | 248° |
| 2026-05-06 23:36 | -6.12756 | 106.64570 | 47 ft | 15 kts | 188° |
| 2026-05-06 23:36 | -6.12863 | 106.64607 | 54 ft | 19 kts | 158° |
| 2026-05-06 23:37 | -6.12993 | 106.64659 | 60 ft | 24 kts | 158° |
| 2026-05-06 23:37 | -6.13164 | 106.64726 | 47 ft | 28 kts | 159° |
| 2026-05-06 23:37 | -6.13365 | 106.64805 | 47 ft | 31 kts | 158° |
| 2026-05-06 23:37 | -6.13546 | 106.64877 | 47 ft | 24 kts | 158° |
| 2026-05-06 23:38 | -6.13694 | 106.64934 | 47 ft | 19 kts | 186° |
| 2026-05-06 23:38 | -6.13773 | 106.64839 | 47 ft | 20 kts | 255° |
| 2026-05-06 23:38 | -6.13812 | 106.64707 | 47 ft | 17 kts | 250° |
| 2026-05-06 23:38 | -6.13857 | 106.64587 | 47 ft | 20 kts | 249° |
| 2026-05-06 23:39 | -6.13911 | 106.64447 | 47 ft | 21 kts | 249° |
| 2026-05-06 23:39 | -6.13955 | 106.64332 | 47 ft | 16 kts | 248° |
| 2026-05-06 23:39 | -6.14016 | 106.64273 | 47 ft | 8 kts | 192° |
| 2026-05-06 23:39 | -6.14025 | 106.64272 | 47 ft | 0 kts | 180° |
| 2026-05-06 23:41 | -6.14026 | 106.64272 | 47 ft | 0 kts | 180° |
| 2026-05-06 23:42 | -6.14036 | 106.64272 | 47 ft | 6 kts | 180° |
| 2026-05-06 23:43 | -6.14092 | 106.64278 | 47 ft | 10 kts | 161° |
| 2026-05-06 23:43 | -6.14108 | 106.64283 | 47 ft | 0 kts | 161° |
| 2026-05-06 23:44 | -6.14121 | 106.64287 | 47 ft | 6 kts | 161° |
| 2026-05-06 23:44 | -6.14182 | 106.64332 | 47 ft | 14 kts | 126° |
| 2026-05-06 23:45 | -6.14219 | 106.64409 | 47 ft | 11 kts | 96° |
| 2026-05-06 23:45 | -6.14211 | 106.64447 | 47 ft | 3 kts | 69° |
| 2026-05-06 23:45 | -6.14189 | 106.64504 | 47 ft | 26 kts | 69° |
| 2026-05-06 23:45 | -6.14024 | 106.64928 | 47 ft | 105 kts | 68° |
| 2026-05-06 23:46 | -6.13657 | 106.65856 | 50 ft | 179 kts | 69° |
| 2026-05-06 23:46 | -6.13156 | 106.67144 | 476 ft | 206 kts | 69° |
| 2026-05-06 23:46 | -6.12648 | 106.68469 | 1423 ft | 205 kts | 69° |
| 2026-05-06 23:46 | -6.12099 | 106.69856 | 1839 ft | 224 kts | 68° |
| 2026-05-06 23:47 | -6.11514 | 106.71369 | 2080 ft | 238 kts | 75° |
| 2026-05-06 23:47 | -6.11490 | 106.73039 | 2511 ft | 245 kts | 102° |
| 2026-05-06 23:47 | -6.12161 | 106.74631 | 3067 ft | 249 kts | 120° |
| 2026-05-06 23:47 | -6.13364 | 106.75880 | 3590 ft | 252 kts | 144° |
| 2026-05-06 23:48 | -6.14963 | 106.76626 | 4031 ft | 259 kts | 166° |
| 2026-05-06 23:48 | -6.16765 | 106.76612 | 4400 ft | 265 kts | 192° |
| 2026-05-06 23:48 | -6.18462 | 106.75878 | 4844 ft | 267 kts | 213° |
| 2026-05-06 23:48 | -6.19730 | 106.74541 | 5326 ft | 264 kts | 239° |
| 2026-05-06 23:49 | -6.20400 | 106.72860 | 5948 ft | 258 kts | 255° |
| 2026-05-06 23:49 | -6.20766 | 106.71081 | 6478 ft | 260 kts | 261° |
| 2026-05-06 23:49 | -6.21001 | 106.69281 | 7102 ft | 263 kts | 264° |
| 2026-05-06 23:49 | -6.21199 | 106.67448 | 7823 ft | 266 kts | 263° |
| 2026-05-06 23:50 | -6.21421 | 106.65595 | 8463 ft | 270 kts | 263° |
| 2026-05-06 23:50 | -6.22044 | 106.61636 | 9143 ft | 301 kts | 260° |
| 2026-05-06 23:50 | -6.22435 | 106.59545 | 9734 ft | 309 kts | 260° |
| 2026-05-06 23:51 | -6.22829 | 106.57433 | 10390 ft | 313 kts | 260° |
| 2026-05-06 23:51 | -6.23193 | 106.55263 | 11058 ft | 317 kts | 266° |
| 2026-05-06 23:51 | -6.22913 | 106.53069 | 11676 ft | 321 kts | 288° |
| 2026-05-06 23:51 | -6.21889 | 106.51067 | 12344 ft | 326 kts | 301° |
| 2026-05-06 23:52 | -6.20559 | 106.49208 | 13003 ft | 330 kts | 306° |
| 2026-05-06 23:52 | -6.19053 | 106.47441 | 13644 ft | 334 kts | 309° |
| 2026-05-06 23:52 | -6.17450 | 106.45729 | 14272 ft | 338 kts | 311° |
| 2026-05-06 23:52 | -6.16381 | 106.44599 | 14680 ft | 340 kts | 310° |
| 2026-05-06 23:53 | -6.14742 | 106.42828 | 15288 ft | 343 kts | 310° |
| 2026-05-06 23:53 | -6.13126 | 106.41049 | 15876 ft | 346 kts | 310° |
| 2026-05-06 23:53 | -6.10979 | 106.38676 | 16639 ft | 350 kts | 310° |
| 2026-05-06 23:53 | -6.09859 | 106.37438 | 17026 ft | 352 kts | 310° |
| 2026-05-06 23:54 | -6.08230 | 106.35632 | 17577 ft | 355 kts | 310° |
| 2026-05-06 23:54 | -6.06563 | 106.33795 | 18124 ft | 358 kts | 310° |
| 2026-05-06 23:54 | -6.04882 | 106.31938 | 18665 ft | 360 kts | 310° |
| 2026-05-06 23:54 | -6.03189 | 106.30069 | 19192 ft | 363 kts | 310° |
| 2026-05-06 23:55 | -6.01487 | 106.28190 | 19712 ft | 366 kts | 310° |
| 2026-05-06 23:55 | -5.99781 | 106.26307 | 20215 ft | 369 kts | 310° |
| 2026-05-06 23:55 | -5.98022 | 106.24367 | 20721 ft | 372 kts | 310° |
| 2026-05-06 23:55 | -5.96263 | 106.22427 | 21118 ft | 379 kts | 310° |
| 2026-05-06 23:56 | -5.94476 | 106.20456 | 21473 ft | 386 kts | 310° |
| 2026-05-06 23:56 | -5.92657 | 106.18450 | 21891 ft | 391 kts | 310° |
| 2026-05-06 23:56 | -5.90812 | 106.16415 | 22347 ft | 395 kts | 310° |
| 2026-05-06 23:56 | -5.88954 | 106.14366 | 22818 ft | 398 kts | 310° |
| 2026-05-06 23:57 | -5.87086 | 106.12306 | 23293 ft | 401 kts | 310° |
| 2026-05-06 23:57 | -5.85192 | 106.10220 | 23766 ft | 404 kts | 310° |
| 2026-05-06 23:57 | -5.83299 | 106.08129 | 24225 ft | 407 kts | 310° |
| 2026-05-06 23:57 | -5.81379 | 106.06011 | 24678 ft | 410 kts | 310° |
| 2026-05-06 23:58 | -5.79451 | 106.03884 | 25121 ft | 413 kts | 310° |
| 2026-05-06 23:58 | -5.77532 | 106.01766 | 25552 ft | 416 kts | 310° |
| 2026-05-06 23:58 | -5.75558 | 105.99587 | 25977 ft | 419 kts | 310° |
| 2026-05-06 23:58 | -5.73588 | 105.97413 | 26386 ft | 422 kts | 310° |
| 2026-05-06 23:59 | -5.71607 | 105.95227 | 26782 ft | 424 kts | 310° |
| 2026-05-06 23:59 | -5.69641 | 105.93058 | 27160 ft | 427 kts | 310° |
| 2026-05-06 23:59 | -5.67614 | 105.90821 | 27539 ft | 429 kts | 310° |
| 2026-05-06 23:59 | -5.65597 | 105.88595 | 27902 ft | 432 kts | 310° |
| 2026-05-07 00:00 | -5.63596 | 105.86385 | 28249 ft | 434 kts | 310° |
| 2026-05-07 00:00 | -5.61556 | 105.84127 | 28592 ft | 437 kts | 310° |
| 2026-05-07 00:00 | -5.59509 | 105.81867 | 28924 ft | 439 kts | 310° |
| 2026-05-07 00:00 | -5.57444 | 105.79589 | 29247 ft | 441 kts | 310° |
| 2026-05-07 00:01 | -5.55369 | 105.77300 | 29564 ft | 444 kts | 310° |
| 2026-05-07 00:01 | -5.53288 | 105.75004 | 29869 ft | 446 kts | 310° |
| 2026-05-07 00:01 | -5.51194 | 105.72695 | 30166 ft | 448 kts | 310° |
| 2026-05-07 00:01 | -5.49083 | 105.70369 | 30457 ft | 450 kts | 310° |
| 2026-05-07 00:02 | -5.46973 | 105.68042 | 30724 ft | 453 kts | 310° |
| 2026-05-07 00:02 | -5.44842 | 105.65694 | 30984 ft | 455 kts | 310° |
| 2026-05-07 00:02 | -5.42988 | 105.63143 | 31266 ft | 453 kts | 298° |
| 2026-05-07 00:02 | -5.41520 | 105.60346 | 31500 ft | 454 kts | 294° |
| 2026-05-07 00:03 | -5.40254 | 105.57483 | 31738 ft | 455 kts | 291° |
| 2026-05-07 00:03 | -5.39090 | 105.54478 | 31963 ft | 457 kts | 289° |
| 2026-05-07 00:03 | -5.36906 | 105.48461 | 31994 ft | 468 kts | 289° |
| 2026-05-07 00:04 | -5.34605 | 105.42270 | 31998 ft | 478 kts | 289° |
| 2026-05-07 00:04 | -5.32248 | 105.35997 | 31997 ft | 481 kts | 289° |
| 2026-05-07 00:05 | -5.29870 | 105.29679 | 31996 ft | 480 kts | 289° |
| 2026-05-07 00:05 | -5.27525 | 105.23453 | 31997 ft | 480 kts | 290° |
| 2026-05-07 00:06 | -5.25030 | 105.17240 | 31997 ft | 481 kts | 293° |
| 2026-05-07 00:06 | -5.22083 | 105.11133 | 31996 ft | 491 kts | 295° |
| 2026-05-07 00:07 | -5.19050 | 105.04920 | 31997 ft | 499 kts | 295° |
| 2026-05-07 00:07 | -5.16010 | 104.98625 | 31997 ft | 504 kts | 294° |
| 2026-05-07 00:08 | -5.12954 | 104.92280 | 31997 ft | 504 kts | 294° |
| 2026-05-07 00:08 | -5.09910 | 104.85951 | 31997 ft | 504 kts | 294° |
| 2026-05-07 00:09 | -5.06871 | 104.79627 | 31990 ft | 504 kts | 294° |
| 2026-05-07 00:09 | -5.03826 | 104.73294 | 31996 ft | 504 kts | 294° |
| 2026-05-07 00:10 | -5.00781 | 104.66968 | 31997 ft | 504 kts | 294° |
| 2026-05-07 00:10 | -4.97733 | 104.60641 | 31997 ft | 504 kts | 294° |
| 2026-05-07 00:11 | -4.94682 | 104.54310 | 31997 ft | 504 kts | 294° |
| 2026-05-07 00:11 | -4.91636 | 104.47993 | 31997 ft | 504 kts | 294° |
| 2026-05-07 00:12 | -4.88551 | 104.41677 | 31997 ft | 504 kts | 295° |
| 2026-05-07 00:12 | -4.85475 | 104.35418 | 31997 ft | 504 kts | 295° |
| 2026-05-07 00:13 | -4.82384 | 104.29119 | 31997 ft | 504 kts | 295° |
| 2026-05-07 00:13 | -4.79286 | 104.22809 | 31997 ft | 504 kts | 295° |
| 2026-05-07 00:14 | -4.76191 | 104.16502 | 31997 ft | 504 kts | 295° |
| 2026-05-07 00:14 | -4.73104 | 104.10199 | 31997 ft | 504 kts | 295° |
| 2026-05-07 00:15 | -4.70012 | 104.03893 | 31997 ft | 504 kts | 295° |
| 2026-05-07 00:15 | -4.66919 | 103.97591 | 31997 ft | 504 kts | 295° |
| 2026-05-07 00:16 | -4.63825 | 103.91288 | 31997 ft | 504 kts | 295° |
| 2026-05-07 00:16 | -4.60730 | 103.84986 | 31997 ft | 504 kts | 295° |
| 2026-05-07 00:17 | -4.57633 | 103.78682 | 31997 ft | 504 kts | 295° |
| 2026-05-07 00:17 | -4.54539 | 103.72385 | 31997 ft | 504 kts | 295° |
| 2026-05-07 00:18 | -4.51460 | 103.66120 | 31997 ft | 504 kts | 295° |
| 2026-05-07 00:18 | -4.48343 | 103.59779 | 31997 ft | 504 kts | 295° |
| 2026-05-07 00:19 | -4.45249 | 103.53488 | 31997 ft | 504 kts | 295° |
| 2026-05-07 00:19 | -4.42171 | 103.47230 | 31997 ft | 504 kts | 295° |
| 2026-05-07 00:20 | -4.39070 | 103.40927 | 31997 ft | 504 kts | 295° |
| 2026-05-07 00:20 | -4.35971 | 103.34629 | 31997 ft | 504 kts | 295° |
| 2026-05-07 00:21 | -4.32873 | 103.28335 | 31997 ft | 504 kts | 295° |
| 2026-05-07 00:21 | -4.29772 | 103.22036 | 31997 ft | 504 kts | 295° |